Pagina principală
METAR-TAF:

METAR-TAF

Aeroporturi :

Audubon County Airport

Audubon, Iowa, Statele Unite ale Americii

Latitudine: 41-42-04N, longitudine: 094-55-13W, elevație: 392 m

Observații meteo curente

Raportul a fost făcut în urmă cu 10 de minute, la 16:55 UTC
Vânt 14 kt de la Nord-vest cu rafale de până la 18 kt
Temperatură 6°C
Umiditate 45%
Presiune 1029 hPa
Vizibilitate: 16.1 km
Nori fragmentați la o înălțime de 4800 picior
Total acoperit la o înălțime de 5500 picior

METAR: KADU 201655Z AUTO 32014G18KT 10SM BKN048 OVC055 06/M05 A3038 RMK AO2

Ora: 12:05 (17:05 UTC)


TAF: lipsă

Observații și prognoze meteo pentru peste 4.000 de aeroporturi (rapoarte METAR și TAF).

Stațiile disponibile sunt reprezentate pe hartă prin puncte galbene și roșii.

Țineți indicatorul mouse-ului pe punctul dorit pentru a vedea denumirea stației.

Apoi, faceți clic pentru a vedea observațiile și prognozele meteorologice.

Pentru a schimba harta: Pentru mărire, faceți clic pe butoanele verzi cu cruce neagră; pentru micșorare, pe butonul verde cu o liniuță; pentru hărți învecinate, pe săgețile verzi.


METAR-TAF: